Time;durP1;ratioP1;P1;durP2;ratioP2;P2;SDS_P1;SDS_P2;PMS_P1;PMS_P2;Temp;Humidity;BMP_temperature;BMP_pressure;BME280_temperature;BME280_humidity;BME280_pressure;Samples;Min_cycle;Max_cycle;Signal;HPM_P1;HPM_P2
2021/04/24 00:00:42;;;;;;;39.25;21.05;;;281.90;1459.20;;;;;;5055833;28;20446;-70
2021/04/24 00:03:08;;;;;;;45.53;22.55;;;281.90;1459.20;;;;;;5055720;28;20557;-70
2021/04/24 00:05:40;;;;;;;40.22;21.33;;;281.90;1459.20;;;;;;5055748;28;20373;-70
2021/04/24 00:08:08;;;;;;;39.15;20.08;;;281.80;1459.20;;;;;;5055839;28;20082;-70
2021/04/24 00:10:37;;;;;;;43.15;21.52;;;281.70;1459.20;;;;;;5055666;28;20458;-70
2021/04/24 00:13:05;;;;;;;46.25;22.92;;;281.70;1459.20;;;;;;5056007;28;20442;-70
2021/04/24 00:15:32;;;;;;;44.28;22.92;;;281.60;1484.80;;;;;;5055677;28;20351;-70
2021/04/24 00:17:58;;;;;;;95.82;51.08;;;256.90;1459.20;;;;;;5055495;28;20444;-70
2021/04/24 00:20:25;;;;;;;65.75;35.92;;;256.80;1459.20;;;;;;5055514;28;20457;-71
2021/04/24 00:22:53;;;;;;;44.50;27.15;;;256.90;1459.20;;;;;;5055517;28;20473;-69
2021/04/24 00:25:20;;;;;;;55.42;30.45;;;256.80;1459.20;;;;;;5055449;28;20374;-71
2021/04/24 00:27:47;;;;;;;58.25;31.38;;;281.60;1484.80;;;;;;5055373;28;20414;-69
2021/04/24 00:30:15;;;;;;;54.40;30.52;;;281.60;1459.20;;;;;;5055310;28;20484;-70
2021/04/24 00:32:42;;;;;;;41.25;24.45;;;281.60;1459.20;;;;;;5055338;28;20431;-69
2021/04/24 00:35:10;;;;;;;53.15;30.15;;;281.70;1484.80;;;;;;5055621;28;20354;-70
2021/04/24 00:37:36;;;;;;;57.03;32.38;;;281.60;1484.80;;;;;;5054103;28;20468;-70
2021/04/24 00:40:05;;;;;;;55.42;30.35;;;281.60;1484.80;;;;;;5055414;28;20029;-70
2021/04/24 00:42:31;;;;;;;44.33;26.35;;;281.60;1484.80;;;;;;5055091;28;20432;-70
2021/04/24 00:44:57;;;;;;;48.38;26.23;;;281.60;1484.80;;;;;;5055336;28;20373;-70
2021/04/24 00:47:24;;;;;;;43.55;26.27;;;281.60;1484.80;;;;;;5055068;28;20503;-70
2021/04/24 00:49:52;;;;;;;53.15;27.50;;;256.90;1459.20;;;;;;5054889;28;20412;-70
2021/04/24 00:52:18;;;;;;;54.60;28.45;;;256.80;1484.80;;;;;;5037058;28;20442;-70
2021/04/24 00:54:45;;;;;;;52.80;29.25;;;256.70;1484.80;;;;;;5037079;28;20465;-70
2021/04/24 00:57:12;;;;;;;53.00;29.38;;;256.80;1510.40;;;;;;5054851;28;20373;-70
2021/04/24 00:59:39;;;;;;;64.88;32.70;;;256.80;1484.80;;;;;;5054744;28;20369;-70
2021/04/24 01:02:07;;;;;;;65.32;33.00;;;256.80;1484.80;;;;;;5054706;28;20350;-70
2021/04/24 01:04:34;;;;;;;59.85;32.92;;;256.80;1484.80;;;;;;5054460;28;20551;-70
2021/04/24 01:07:02;;;;;;;57.28;31.40;;;256.80;1484.80;;;;;;5054630;28;20432;-70
2021/04/24 01:09:28;;;;;;;57.33;31.00;;;256.80;1510.40;;;;;;5054824;28;20458;-70
2021/04/24 01:11:54;;;;;;;59.08;30.52;;;256.80;1510.40;;;;;;5054603;28;20392;-70
2021/04/24 01:14:21;;;;;;;57.67;31.13;;;256.60;1536.00;;;;;;5054593;28;20027;-70
2021/04/24 01:16:47;;;;;;;63.55;31.45;;;256.50;1536.00;;;;;;5054410;28;20362;-71
2021/04/24 01:19:15;;;;;;;59.53;31.23;;;256.60;1536.00;;;;;;5054374;28;20515;-70
2021/04/24 01:21:42;;;;;;;60.03;29.55;;;256.70;1510.40;;;;;;5054405;28;20525;-70
2021/04/24 01:24:10;;;;;;;59.38;30.75;;;256.80;1484.80;;;;;;5054286;28;20374;-69
2021/04/24 01:26:37;;;;;;;62.53;33.65;;;256.70;1484.80;;;;;;5054256;28;20335;-69
2021/04/24 01:29:06;;;;;;;68.80;35.15;;;256.50;1536.00;;;;;;5054401;28;20557;-70
2021/04/24 01:31:34;;;;;;;66.22;33.47;;;256.30;1561.60;;;;;;5054229;28;20029;-70
2021/04/24 01:34:01;;;;;;;69.63;35.22;;;256.60;1536.00;;;;;;5054098;28;20413;-70
2021/04/24 01:36:27;;;;;;;69.45;33.00;;;256.50;1536.00;;;;;;5054182;28;20358;-69
2021/04/24 01:38:53;;;;;;;65.57;33.25;;;256.40;1536.00;;;;;;5054015;28;20526;-70
2021/04/24 01:41:20;;;;;;;61.38;34.83;;;256.40;1536.00;;;;;;5053937;28;20470;-69
2021/04/24 01:43:54;;;;;;;60.58;32.10;;;256.40;1536.00;;;;;;5053935;28;20351;-70
2021/04/24 01:46:21;;;;;;;62.70;33.92;;;256.30;1561.60;;;;;;5053883;28;20067;-70
2021/04/24 01:48:48;;;;;;;58.80;31.83;;;256.20;1612.80;;;;;;5053445;28;20462;-70
2021/04/24 01:51:14;;;;;;;67.82;32.55;;;256.30;1587.20;;;;;;5053810;28;20405;-70
2021/04/24 01:53:41;;;;;;;59.67;31.15;;;256.30;1587.20;;;;;;5054079;28;20472;-70
2021/04/24 01:56:10;;;;;;;63.38;32.95;;;256.10;1638.40;;;;;;5053768;28;20543;-70
2021/04/24 01:58:36;;;;;;;65.47;33.05;;;256.10;1638.40;;;;;;5053982;28;20416;-70
2021/04/24 02:01:09;;;;;;;59.97;31.83;;;256.10;1638.40;;;;;;5053679;28;20082;-70
2021/04/24 02:03:35;;;;;;;59.95;30.90;;;256.10;1664.00;;;;;;5053464;28;20444;-70
2021/04/24 02:06:02;;;;;;;56.35;31.48;;;256.00;1664.00;;;;;;5053872;28;20492;-70
2021/04/24 02:08:40;;;;;;;57.03;31.10;;;256.20;1638.40;;;;;;5053818;28;20466;-70
2021/04/24 02:11:07;;;;;;;52.72;31.13;;;256.00;1638.40;;;;;;5053854;28;20373;-69
2021/04/24 02:13:37;;;;;;;58.35;31.60;;;256.00;1638.40;;;;;;5053461;28;20492;-70
2021/04/24 02:16:06;;;;;;;56.53;32.03;;;256.00;1612.80;;;;;;5053401;28;20433;-70
2021/04/24 02:18:33;;;;;;;58.20;29.30;;;256.00;1587.20;;;;;;5053501;28;20474;-70
2021/04/24 02:20:59;;;;;;;57.17;30.02;;;256.00;1587.20;;;;;;5053312;28;20370;-70
2021/04/24 02:23:25;;;;;;;57.15;32.33;;;256.10;1587.20;;;;;;5053289;28;20365;-70
2021/04/24 02:25:52;;;;;;;53.83;33.38;;;256.10;1612.80;;;;;;5053273;28;20458;-70
2021/04/24 02:28:18;;;;;;;49.97;29.65;;;256.10;1612.80;;;;;;5053264;28;20370;-70
2021/04/24 02:30:45;;;;;;;46.70;25.05;;;256.00;1587.20;;;;;;5053213;28;20453;-70
2021/04/24 02:33:12;;;;;;;45.92;27.77;;;256.00;1612.80;;;;;;5053211;28;20373;-70
2021/04/24 02:35:59;;;;;;;42.22;26.63;;;231.20;1587.20;;;;;;5053483;28;20369;-70
2021/04/24 02:38:30;;;;;;;44.95;26.35;;;231.20;1587.20;;;;;;5054073;28;20388;-70
2021/04/24 02:40:59;;;;;;;43.65;25.35;;;231.30;1587.20;;;;;;5053173;28;20369;-70
2021/04/24 02:43:26;;;;;;;50.63;27.30;;;231.30;1561.60;;;;;;5053449;28;20523;-71
2021/04/24 02:45:52;;;;;;;44.58;25.33;;;256.00;1561.60;;;;;;5053104;28;20369;-70
2021/04/24 02:48:18;;;;;;;38.53;23.40;;;231.30;1561.60;;;;;;5053079;28;20429;-71
2021/04/24 02:50:46;;;;;;;41.33;24.17;;;231.30;1561.60;;;;;;5053040;28;20072;-70
2021/04/24 02:53:12;;;;;;;38.63;22.55;;;231.20;1561.60;;;;;;5053063;28;20369;-70
2021/04/24 02:55:39;;;;;;;40.95;21.70;;;231.30;1561.60;;;;;;5052989;28;20025;-69
2021/04/24 02:58:05;;;;;;;38.97;23.60;;;256.00;1536.00;;;;;;5053041;28;20369;-70
2021/04/24 03:00:33;;;;;;;44.78;24.23;;;231.20;1561.60;;;;;;5052978;28;20342;-70
2021/04/24 03:03:04;;;;;;;42.80;23.33;;;231.10;1587.20;;;;;;5056755;28;20418;-70
2021/04/24 03:05:31;;;;;;;40.78;23.25;;;231.10;1587.20;;;;;;5056900;28;20395;-70
2021/04/24 03:07:58;;;;;;;35.92;22.42;;;231.20;1587.20;;;;;;5056939;28;20457;-70
2021/04/24 03:10:25;;;;;;;41.70;21.50;;;231.30;1587.20;;;;;;5056707;28;20393;-70
2021/04/24 03:12:52;;;;;;;43.05;23.33;;;231.30;1587.20;;;;;;5056852;28;20374;-71
2021/04/24 03:15:19;;;;;;;42.88;23.48;;;231.30;1561.60;;;;;;5056808;28;20398;-70
2021/04/24 03:17:46;;;;;;;38.72;22.40;;;231.30;1561.60;;;;;;5056639;28;20376;-70
2021/04/24 03:20:15;;;;;;;47.92;24.65;;;231.30;1561.60;;;;;;5056758;28;20454;-70
2021/04/24 03:22:42;;;;;;;37.88;21.58;;;231.10;1587.20;;;;;;5038828;28;20366;-70
2021/04/24 03:25:09;;;;;;;41.00;23.17;;;230.60;1664.00;;;;;;5056531;28;20350;-69
2021/04/24 03:27:35;;;;;;;36.92;21.90;;;230.60;1664.00;;;;;;5038943;28;20369;-70
2021/04/24 03:30:04;;;;;;;38.65;22.83;;;230.70;1664.00;;;;;;5056372;28;20374;-70
2021/04/24 03:32:31;;;;;;;38.92;23.23;;;230.80;1638.40;;;;;;5038603;28;20369;-70
2021/04/24 03:34:57;;;;;;;42.33;23.15;;;230.70;1638.40;;;;;;5056720;28;20533;-69
2021/04/24 03:37:23;;;;;;;45.88;23.13;;;230.70;1612.80;;;;;;5056349;28;20454;-70
2021/04/24 03:39:49;;;;;;;38.47;20.88;;;230.70;1612.80;;;;;;5056322;28;20369;-70
2021/04/24 03:42:15;;;;;;;37.25;21.00;;;230.70;1612.80;;;;;;5056572;28;20361;-70
2021/04/24 03:44:42;;;;;;;33.70;19.83;;;230.80;1612.80;;;;;;5056258;28;20466;-70
2021/04/24 03:47:08;;;;;;;37.20;20.45;;;230.90;1587.20;;;;;;5056308;28;20508;-70
2021/04/24 03:49:35;;;;;;;35.47;20.63;;;230.80;1612.80;;;;;;5056039;28;20425;-71
2021/04/24 03:52:02;;;;;;;36.63;19.67;;;230.70;1612.80;;;;;;5056036;28;20393;-71
2021/04/24 03:54:30;;;;;;;38.00;19.50;;;230.80;1587.20;;;;;;5055998;28;20483;-70
2021/04/24 03:56:57;;;;;;;36.70;20.38;;;230.90;1587.20;;;;;;5056012;28;20374;-70
2021/04/24 03:59:24;;;;;;;37.33;18.23;;;230.90;1561.60;;;;;;5055926;28;20409;-71
2021/04/24 04:01:50;;;;;;;35.78;19.10;;;230.90;1587.20;;;;;;5055918;28;20394;-70
2021/04/24 04:04:16;;;;;;;36.97;21.40;;;230.80;1587.20;;;;;;5055703;28;20425;-70
2021/04/24 04:06:42;;;;;;;77.63;45.88;;;230.90;1561.60;;;;;;5055750;28;20366;-70
2021/04/24 04:09:08;;;;;;;139.20;98.05;;;231.00;1561.60;;;;;;5055677;28;20374;-70
2021/04/24 04:11:34;;;;;;;128.43;93.32;;;231.00;1561.60;;;;;;5055711;28;20032;-70
2021/04/24 04:14:00;;;;;;;93.15;71.50;;;231.00;1561.60;;;;;;5055433;28;20404;-70
2021/04/24 04:16:26;;;;;;;81.45;60.35;;;231.10;1536.00;;;;;;5055892;28;20453;-70
2021/04/24 04:18:53;;;;;;;58.22;40.38;;;231.30;1536.00;;;;;;5055909;28;20362;-70
2021/04/24 04:21:19;;;;;;;42.67;30.42;;;231.10;1536.00;;;;;;5055668;28;20617;-70
2021/04/24 04:23:46;;;;;;;42.78;26.17;;;231.20;1536.00;;;;;;5055832;28;20465;-70
2021/04/24 04:26:12;;;;;;;90.72;44.63;;;231.10;1561.60;;;;;;5055533;28;20457;-70
2021/04/24 04:28:38;;;;;;;598.97;219.45;;;231.00;1561.60;;;;;;5055536;28;20519;-70
2021/04/24 04:31:05;;;;;;;790.47;323.83;;;231.10;1536.00;;;;;;5055253;28;20389;-70
2021/04/24 04:33:31;;;;;;;739.20;338.63;;;256.00;1536.00;;;;;;5055284;28;20404;-70
2021/04/24 04:36:04;;;;;;;518.90;232.73;;;256.00;1510.40;;;;;;5055228;28;20544;-70
2021/04/24 04:38:31;;;;;;;325.20;137.85;;;256.10;1484.80;;;;;;5055257;28;20481;-69
2021/04/24 04:40:58;;;;;;;156.73;70.00;;;231.30;1510.40;;;;;;5037303;28;20416;-69
2021/04/24 04:43:24;;;;;;;119.97;54.38;;;256.10;1484.80;;;;;;5055067;28;20380;-70
2021/04/24 04:45:51;;;;;;;96.53;46.70;;;256.10;1484.80;;;;;;5055006;28;20358;-69
2021/04/24 04:48:17;;;;;;;85.75;44.25;;;256.10;1510.40;;;;;;5055055;28;20377;-70
2021/04/24 04:50:43;;;;;;;64.90;35.03;;;256.20;1510.40;;;;;;5055207;28;20420;-70
2021/04/24 04:53:09;;;;;;;69.40;34.45;;;256.30;1510.40;;;;;;5054912;28;20339;-70
2021/04/24 04:55:36;;;;;;;73.30;34.90;;;256.40;1484.80;;;;;;5054850;28;20032;-70
2021/04/24 04:58:04;;;;;;;55.17;29.75;;;256.50;1484.80;;;;;;5054788;28;20404;-70
2021/04/24 05:00:30;;;;;;;39.00;20.33;;;256.50;1484.80;;;;;;5054737;28;20468;-70
2021/04/24 05:02:56;;;;;;;34.40;19.67;;;256.60;1484.80;;;;;;5054714;28;20407;-69
2021/04/24 05:05:23;;;;;;;34.60;18.10;;;256.90;1459.20;;;;;;5054560;28;20393;-70
2021/04/24 05:07:49;;;;;;;31.42;16.30;;;256.80;1459.20;;;;;;5054605;28;20358;-70
2021/04/24 05:10:17;;;;;;;31.58;17.48;;;281.60;1459.20;;;;;;5054595;28;20462;-70
2021/04/24 05:12:44;;;;;;;29.00;15.77;;;281.70;1484.80;;;;;;5054627;28;20373;-70
2021/04/24 05:15:11;;;;;;;24.17;14.85;;;281.80;1484.80;;;;;;5054605;28;20378;-71
2021/04/24 05:17:37;;;;;;;20.55;13.70;;;256.90;1484.80;;;;;;5054498;28;20374;-71
2021/04/24 05:20:05;;;;;;;22.33;12.38;;;256.90;1484.80;;;;;;5054502;28;20549;-71
2021/04/24 05:22:31;;;;;;;20.85;13.27;;;281.70;1510.40;;;;;;5054629;28;20021;-71
2021/04/24 05:24:59;;;;;;;18.05;12.38;;;281.80;1510.40;;;;;;5053974;28;20411;-70
2021/04/24 05:27:25;;;;;;;21.05;12.52;;;281.80;1510.40;;;;;;5054328;28;20417;-71
2021/04/24 05:29:51;;;;;;;18.27;10.90;;;281.80;1536.00;;;;;;5054136;28;20512;-72
2021/04/24 05:32:18;;;;;;;20.33;12.25;;;282.00;1484.80;;;;;;5054193;28;20366;-71
2021/04/24 05:34:45;;;;;;;16.17;11.13;;;282.10;1510.40;;;;;;5054166;28;20343;-71
2021/04/24 05:37:12;;;;;;;19.67;10.88;;;282.20;1484.80;;;;;;5054510;28;20339;-72
2021/04/24 05:39:37;;;;;;;16.33;10.27;;;282.30;1459.20;;;;;;5054060;28;20366;-71
2021/04/24 05:42:04;;;;;;;17.55;8.93;;;282.30;1408.00;;;;;;5054073;28;20021;-71
2021/04/24 05:44:30;;;;;;;15.57;9.07;;;282.40;1356.80;;;;;;5054068;28;20488;-70
2021/04/24 05:46:56;;;;;;;18.42;9.93;;;282.30;1408.00;;;;;;5054445;28;20346;-70
2021/04/24 05:49:22;;;;;;;16.67;9.18;;;282.40;1408.00;;;;;;5054674;28;20394;-71
2021/04/24 05:51:48;;;;;;;19.10;9.35;;;307.20;1408.00;;;;;;5054211;28;20120;-70
2021/04/24 05:54:14;;;;;;;21.73;12.43;;;307.20;1408.00;;;;;;5053961;28;20017;-73
2021/04/24 05:56:40;;;;;;;19.88;11.88;;;307.50;1356.80;;;;;;5036178;28;20492;-71
2021/04/24 05:59:06;;;;;;;18.40;10.23;;;307.50;1382.40;;;;;;5053828;28;20024;-71
2021/04/24 06:01:32;;;;;;;35.80;17.77;;;307.70;1356.80;;;;;;5054370;28;20049;-71
2021/04/24 06:03:58;;;;;;;17.30;10.35;;;307.70;1331.20;;;;;;5053638;28;20486;-72
2021/04/24 06:06:24;;;;;;;19.38;10.23;;;307.70;1305.60;;;;;;5053673;28;20361;-71
2021/04/24 06:08:50;;;;;;;22.58;11.30;;;307.70;1305.60;;;;;;5054340;28;20413;-72
2021/04/24 06:14:39;;;;;;;15.88;8.63;;;308.00;1280.00;;;;;;5053728;28;20032;-76
2021/04/24 06:17:05;;;;;;;16.38;8.52;;;332.80;1254.40;;;;;;5053520;28;20477;-71
2021/04/24 06:19:31;;;;;;;19.80;10.23;;;332.80;1254.40;;;;;;5053565;28;20021;-73
2021/04/24 06:21:57;;;;;;;14.93;9.30;;;333.40;1254.40;;;;;;5053742;28;20388;-71
2021/04/24 06:24:23;;;;;;;17.27;9.65;;;358.60;1152.00;;;;;;5053704;28;20408;-74
2021/04/24 06:26:49;;;;;;;15.75;9.27;;;384.00;1126.40;;;;;;5053717;28;20024;-71
2021/04/24 06:29:15;;;;;;;17.65;10.45;;;409.90;1075.20;;;;;;5053569;28;20033;-70
2021/04/24 06:31:41;;;;;;;18.08;9.45;;;410.10;1024.00;;;;;;5053317;28;20521;-71
2021/04/24 06:34:07;;;;;;;39.47;11.10;;;410.10;1024.00;;;;;;5053233;28;20072;-79
2021/04/24 06:36:34;;;;;;;20.85;10.02;;;409.70;1075.20;;;;;;5053359;28;20374;-71
2021/04/24 06:39:05;;;;;;;13.63;8.55;;;384.70;1049.60;;;;;;5053287;28;20497;-71
2021/04/24 06:41:32;;;;;;;17.90;9.65;;;384.60;1075.20;;;;;;5053209;28;20462;-73
2021/04/24 06:43:58;;;;;;;13.05;8.10;;;384.50;1075.20;;;;;;5053237;28;20422;-69
2021/04/24 06:46:24;;;;;;;21.67;8.77;;;384.50;1049.60;;;;;;5053308;28;20381;-69
2021/04/24 06:48:50;;;;;;;14.38;8.13;;;384.50;1075.20;;;;;;5035391;28;20420;-70
2021/04/24 06:51:16;;;;;;;17.77;9.20;;;384.80;1049.60;;;;;;5053145;28;20394;-71
2021/04/24 06:53:42;;;;;;;12.18;8.25;;;409.60;1075.20;;;;;;5053172;28;20103;-71
2021/04/24 06:56:08;;;;;;;14.63;8.43;;;384.80;1024.00;;;;;;5053189;28;20032;-69
2021/04/24 06:58:35;;;;;;;15.65;8.55;;;384.80;1024.00;;;;;;5053197;28;20377;-71
2021/04/24 07:01:01;;;;;;;15.70;8.02;;;384.60;1024.00;;;;;;5053087;28;20525;-71
2021/04/24 07:03:27;;;;;;;15.27;8.52;;;384.60;1024.00;;;;;;5053154;28;20369;-71
2021/04/24 07:05:53;;;;;;;13.35;7.97;;;384.60;1024.00;;;;;;5053080;28;20374;-71
2021/04/24 07:08:19;;;;;;;12.75;8.65;;;384.70;1024.00;;;;;;5053698;28;20442;-71
2021/04/24 07:10:45;;;;;;;14.90;8.65;;;384.80;1024.00;;;;;;5053634;28;20420;-71
2021/04/24 07:13:12;;;;;;;13.85;8.23;;;384.90;998.40;;;;;;5053670;28;20044;-71
2021/04/24 07:15:38;;;;;;;14.35;8.27;;;384.90;1024.00;;;;;;5053051;28;20440;-71
2021/04/24 07:18:05;;;;;;;14.82;8.27;;;409.90;1024.00;;;;;;5053307;28;20520;-71
2021/04/24 07:20:31;;;;;;;24.65;13.50;;;409.90;1024.00;;;;;;5035442;28;20347;-70
2021/04/24 07:22:57;;;;;;;12.68;8.18;;;410.30;1024.00;;;;;;5052935;28;20529;-71
2021/04/24 07:25:23;;;;;;;14.55;8.18;;;410.40;998.40;;;;;;5052909;28;20390;-71
2021/04/24 07:27:49;;;;;;;16.25;8.00;;;410.50;998.40;;;;;;5052806;28;20412;-72
2021/04/24 07:30:16;;;;;;;15.07;7.45;;;435.30;972.80;;;;;;5052787;28;20372;-70
2021/04/24 07:32:42;;;;;;;14.50;8.30;;;435.40;972.80;;;;;;5052788;28;20366;-70
2021/04/24 07:35:09;;;;;;;13.50;7.07;;;435.20;972.80;;;;;;5052896;28;20416;-70
2021/04/24 07:37:35;;;;;;;9.43;6.25;;;435.20;947.20;;;;;;5052768;28;20438;-70
2021/04/24 07:40:01;;;;;;;13.18;6.50;;;435.20;947.20;;;;;;5034889;28;20390;-70
2021/04/24 07:42:27;;;;;;;15.68;8.38;;;410.50;947.20;;;;;;5052729;28;20351;-70
2021/04/24 07:44:53;;;;;;;17.63;7.70;;;435.20;972.80;;;;;;5052701;28;20025;-71
2021/04/24 07:47:20;;;;;;;14.52;8.50;;;435.20;947.20;;;;;;5053704;28;20402;-71
2021/04/24 07:49:46;;;;;;;12.07;8.32;;;435.40;972.80;;;;;;5056260;28;20412;-71
2021/04/24 07:52:14;;;;;;;13.60;9.05;;;435.60;947.20;;;;;;5056351;28;20362;-71
2021/04/24 07:54:43;;;;;;;15.27;9.05;;;435.50;972.80;;;;;;5056122;28;20351;-70
2021/04/24 07:57:14;;;;;;;18.55;10.48;;;435.40;972.80;;;;;;5056146;28;20366;-71
2021/04/24 07:59:41;;;;;;;19.45;8.50;;;435.60;998.40;;;;;;5056216;28;20369;-71
2021/04/24 08:02:07;;;;;;;18.77;8.43;;;435.40;972.80;;;;;;5056192;28;20408;-71
2021/04/24 08:04:34;;;;;;;14.82;10.07;;;435.50;998.40;;;;;;5055939;28;20489;-72
2021/04/24 08:07:01;;;;;;;16.70;9.75;;;435.40;1024.00;;;;;;5056012;28;20493;-72
2021/04/24 08:09:27;;;;;;;14.70;9.77;;;435.60;972.80;;;;;;5038150;28;20377;-71
2021/04/24 08:11:54;;;;;;;18.02;8.23;;;435.50;998.40;;;;;;5055927;28;20029;-70
2021/04/24 08:14:20;;;;;;;15.68;9.95;;;435.60;972.80;;;;;;5055969;28;20405;-70
2021/04/24 08:16:46;;;;;;;17.17;9.70;;;435.70;972.80;;;;;;5055618;28;20472;-71
2021/04/24 08:19:12;;;;;;;13.80;9.40;;;435.60;998.40;;;;;;5055961;28;20432;-71
2021/04/24 08:21:40;;;;;;;16.00;10.23;;;435.50;1024.00;;;;;;5055936;28;20053;-70
2021/04/24 08:24:07;;;;;;;19.02;10.85;;;435.50;1049.60;;;;;;5037727;28;20374;-70
2021/04/24 08:26:33;;;;;;;15.15;10.18;;;435.40;1024.00;;;;;;5055632;28;20449;-70
2021/04/24 08:28:59;;;;;;;14.07;10.05;;;435.40;998.40;;;;;;5055547;28;20412;-71
2021/04/24 08:31:26;;;;;;;21.30;9.88;;;435.60;998.40;;;;;;5055545;28;20447;-70
2021/04/24 08:33:52;;;;;;;14.63;9.05;;;435.60;998.40;;;;;;5055793;28;20361;-72
2021/04/24 08:36:18;;;;;;;17.33;10.05;;;435.60;998.40;;;;;;5055458;28;20627;-72
2021/04/24 08:38:45;;;;;;;13.98;9.18;;;435.60;998.40;;;;;;5055509;28;20545;-73
2021/04/24 08:41:11;;;;;;;21.15;10.52;;;435.80;972.80;;;;;;5037518;28;20021;-71
2021/04/24 08:43:40;;;;;;;14.32;8.80;;;435.90;972.80;;;;;;5055406;28;20036;-71
2021/04/24 08:46:07;;;;;;;15.98;8.95;;;435.70;972.80;;;;;;5055582;28;20377;-72
2021/04/24 08:48:34;;;;;;;17.95;8.70;;;435.80;947.20;;;;;;5055197;28;20428;-71
2021/04/24 08:51:01;;;;;;;15.55;9.77;;;435.90;947.20;;;;;;5055116;28;20374;-71
2021/04/24 08:53:27;;;;;;;12.63;7.93;;;435.60;998.40;;;;;;5055187;28;20461;-71
2021/04/24 08:55:54;;;;;;;17.40;9.27;;;435.80;972.80;;;;;;5055060;28;20390;-71
2021/04/24 08:58:20;;;;;;;17.20;10.48;;;435.90;947.20;;;;;;5054490;28;20405;-73
2021/04/24 09:00:49;;;;;;;12.73;8.18;;;435.90;921.60;;;;;;5055234;28;20446;-71
2021/04/24 09:03:19;;;;;;;12.73;8.13;;;435.70;921.60;;;;;;5054681;28;20468;-73
2021/04/24 09:05:47;;;;;;;15.10;8.63;;;435.80;947.20;;;;;;5055224;28;20461;-71
2021/04/24 09:08:13;;;;;;;15.68;7.75;;;435.90;947.20;;;;;;5055376;28;20370;-70
2021/04/24 09:10:40;;;;;;;13.07;8.30;;;435.70;896.00;;;;;;5054633;28;20424;-70
2021/04/24 09:13:07;;;;;;;13.45;7.32;;;435.60;921.60;;;;;;5054773;28;20365;-72
2021/04/24 09:15:34;;;;;;;12.80;8.23;;;435.60;921.60;;;;;;5054761;28;20017;-70
2021/04/24 09:18:06;;;;;;;13.95;7.85;;;435.70;921.60;;;;;;5054582;28;20347;-71
2021/04/24 09:20:45;;;;;;;16.27;7.63;;;435.60;947.20;;;;;;5054708;28;20531;-70
2021/04/24 09:23:13;;;;;;;17.90;8.05;;;435.60;972.80;;;;;;5054681;28;20404;-71
2021/04/24 09:26:02;;;;;;;13.13;8.50;;;435.70;947.20;;;;;;5054533;28;20373;-70
2021/04/24 09:28:31;;;;;;;20.30;10.27;;;435.70;947.20;;;;;;5054523;28;20379;-70
2021/04/24 09:31:08;;;;;;;12.15;8.32;;;435.80;896.00;;;;;;5054308;28;20393;-71
2021/04/24 09:33:35;;;;;;;12.52;7.55;;;435.90;896.00;;;;;;5020258;28;20465;-70
2021/04/24 09:36:03;;;;;;;14.55;8.63;;;435.80;921.60;;;;;;5054522;28;20369;-70
2021/04/24 09:38:31;;;;;;;18.38;10.18;;;435.90;896.00;;;;;;5054571;28;20364;-69
2021/04/24 09:41:17;;;;;;;20.83;7.88;;;436.00;921.60;;;;;;5054517;28;20404;-70
2021/04/24 09:43:47;;;;;;;19.67;11.00;;;436.10;896.00;;;;;;5054578;28;20453;-71
2021/04/24 09:46:15;;;;;;;15.13;9.20;;;436.00;870.40;;;;;;5054210;28;20569;-71
2021/04/24 09:48:41;;;;;;;13.60;7.32;;;436.00;921.60;;;;;;5054139;28;20485;-71
2021/04/24 09:51:18;;;;;;;11.60;7.45;;;436.00;896.00;;;;;;5054009;28;20412;-70
2021/04/24 09:53:57;;;;;;;14.10;7.75;;;436.00;947.20;;;;;;5053990;28;20457;-71
2021/04/24 09:56:27;;;;;;;15.93;9.27;;;436.00;870.40;;;;;;5036146;28;20408;-71
2021/04/24 09:59:02;;;;;;;14.60;7.95;;;435.80;972.80;;;;;;5053868;28;20396;-70
2021/04/24 10:01:32;;;;;;;9.30;6.75;;;435.80;947.20;;;;;;5054524;28;20421;-70
2021/04/24 10:04:00;;;;;;;9.55;7.43;;;436.00;921.60;;;;;;5053734;28;20381;-74
2021/04/24 10:06:43;;;;;;;17.70;8.07;;;436.10;870.40;;;;;;5053954;28;20463;-73
2021/04/24 10:09:22;;;;;;;15.13;8.95;;;460.90;921.60;;;;;;5053738;28;20426;-72
2021/04/24 10:11:53;;;;;;;14.13;8.50;;;461.00;896.00;;;;;;5053701;28;20094;-69
2021/04/24 10:14:49;;;;;;;10.57;7.68;;;460.90;870.40;;;;;;5053644;28;20420;-71
2021/04/24 10:17:18;;;;;;;12.98;8.88;;;460.90;896.00;;;;;;5032807;28;20381;-71
2021/04/24 10:19:47;;;;;;;11.00;6.78;;;461.00;896.00;;;;;;5053510;28;20070;-71
2021/04/24 10:22:19;;;;;;;10.18;6.70;;;461.10;870.40;;;;;;5053561;28;20450;-72
2021/04/24 10:24:46;;;;;;;16.02;8.50;;;461.10;844.80;;;;;;5053508;28;20369;-71
2021/04/24 10:27:14;;;;;;;14.80;7.43;;;461.20;870.40;;;;;;5053418;28;20407;-69
2021/04/24 10:29:42;;;;;;;9.50;6.75;;;461.10;896.00;;;;;;5053457;28;20365;-70
2021/04/24 10:32:09;;;;;;;13.23;6.53;;;461.10;844.80;;;;;;5053695;28;20378;-70
2021/04/24 10:34:35;;;;;;;16.73;7.32;;;461.00;819.20;;;;;;5053502;28;20347;-70
2021/04/24 10:37:01;;;;;;;11.65;6.85;;;461.00;870.40;;;;;;5053315;28;20435;-70
2021/04/24 10:39:37;;;;;;;15.70;6.60;;;460.90;844.80;;;;;;5053434;28;20021;-69
2021/04/24 10:42:07;;;;;;;16.42;8.23;;;461.00;844.80;;;;;;5053655;28;20347;-70
2021/04/24 10:44:46;;;;;;;10.68;6.45;;;461.10;844.80;;;;;;5053722;28;20401;-70
2021/04/24 10:47:12;;;;;;;11.40;6.22;;;461.00;844.80;;;;;;5053573;28;20450;-70
2021/04/24 10:49:54;;;;;;;10.35;6.10;;;461.10;844.80;;;;;;5053251;28;20374;-70
2021/04/24 10:52:22;;;;;;;13.23;5.75;;;461.20;844.80;;;;;;5053284;28;20374;-70
2021/04/24 10:55:15;;;;;;;13.85;5.10;;;461.20;844.80;;;;;;5053194;28;20382;-69
2021/04/24 10:57:55;;;;;;;10.10;5.10;;;461.20;793.60;;;;;;5053544;28;20407;-71
2021/04/24 11:00:29;;;;;;;9.13;4.70;;;461.30;768.00;;;;;;5053112;28;20474;-71
2021/04/24 11:02:57;;;;;;;14.68;9.88;;;461.30;742.40;;;;;;5053612;28;20357;-70
2021/04/24 11:05:27;;;;;;;10.57;5.70;;;461.30;870.40;;;;;;5052913;28;20495;-71
2021/04/24 11:08:09;;;;;;;10.32;5.05;;;461.30;819.20;;;;;;5053073;28;20493;-71
2021/04/24 11:10:56;;;;;;;7.60;4.72;;;461.20;819.20;;;;;;5053250;28;20466;-69
2021/04/24 11:13:23;;;;;;;11.13;5.72;;;461.40;768.00;;;;;;5053448;28;20343;-70
2021/04/24 11:15:51;;;;;;;11.13;4.07;;;461.40;793.60;;;;;;5052984;28;20370;-70
2021/04/24 11:18:18;;;;;;;10.43;4.63;;;461.50;742.40;;;;;;5052950;28;20442;-70
2021/04/24 11:21:03;;;;;;;9.40;4.80;;;461.40;742.40;;;;;;5053027;28;20457;-70
2021/04/24 11:23:33;;;;;;;8.48;4.82;;;461.30;742.40;;;;;;5056174;28;20457;-70
2021/04/24 11:26:03;;;;;;;6.18;3.85;;;461.40;768.00;;;;;;5039800;28;20403;-71
2021/04/24 11:28:30;;;;;;;9.05;4.78;;;461.50;716.80;;;;;;5057063;28;20393;-71
2021/04/24 11:30:58;;;;;;;10.00;4.40;;;461.40;716.80;;;;;;5056685;28;20480;-71
2021/04/24 11:33:45;;;;;;;15.45;6.05;;;461.40;742.40;;;;;;5056607;28;20053;-70
2021/04/24 11:36:17;;;;;;;8.82;4.70;;;461.40;742.40;;;;;;5056684;28;20393;-72
2021/04/24 11:39:00;;;;;;;6.60;3.90;;;461.50;716.80;;;;;;5056868;28;20012;-71
2021/04/24 11:41:45;;;;;;;8.60;4.93;;;461.50;716.80;;;;;;5056783;28;20461;-71
2021/04/24 11:44:17;;;;;;;8.38;4.95;;;461.50;691.20;;;;;;5056419;28;20369;-70
2021/04/24 11:46:45;;;;;;;10.10;4.20;;;461.50;716.80;;;;;;5056500;28;20457;-70
2021/04/24 11:49:18;;;;;;;7.53;4.65;;;461.60;793.60;;;;;;5056259;28;20408;-69
2021/04/24 11:52:09;;;;;;;18.38;9.73;;;486.40;742.40;;;;;;5038557;28;20441;-71
2021/04/24 11:54:38;;;;;;;8.25;4.97;;;461.60;716.80;;;;;;5056276;28;20469;-71
2021/04/24 11:57:07;;;;;;;10.50;5.18;;;461.60;742.40;;;;;;5056782;28;20099;-71
2021/04/24 11:59:36;;;;;;;11.02;4.95;;;461.60;742.40;;;;;;5056129;28;20376;-76
2021/04/24 12:02:19;;;;;;;7.80;4.75;;;461.60;742.40;;;;;;5056411;28;20441;-71
2021/04/24 12:04:49;;;;;;;6.45;3.90;;;486.40;742.40;;;;;;5056025;28;20532;-69
2021/04/24 12:07:17;;;;;;;5.57;4.05;;;486.40;691.20;;;;;;5056298;28;20465;-72
2021/04/24 12:10:05;;;;;;;7.60;3.63;;;461.60;691.20;;;;;;5056164;28;20465;-71
2021/04/24 12:12:33;;;;;;;12.13;4.55;;;486.40;716.80;;;;;;5055980;28;20441;-70
2021/04/24 12:15:12;;;;;;;7.18;4.20;;;486.50;691.20;;;;;;5055914;28;20384;-72